Terminal Aerodrome Forecast
Issued by NWS

Home | Current Version | Previous Version | Text Only | Print | Product List | Glossary On
Versions: 1 2 3 4 5 6 7 8 9 10 11 12 13 14 15 16 17 18 19
000
FTUS41 KCAR 251721
TAFFVE
TAF
KFVE 251721Z 2518/2618 16006KT P6SM BKN200
     FM260100 16004KT 6SM SHRA OVC050
     FM260300 15005KT 4SM -SHRA BR OVC020
     FM260700 18005KT 2SM BR OVC005
     FM261200 25005KT P6SM VCSH BKN020
     FM261600 26005KT P6SM VCSH BKN035=

USA.gov is the U.S. government's official web portal to all federal, state and local government web resources and services.